Time;durP1;ratioP1;P1;durP2;ratioP2;P2;SDS_P1;SDS_P2;PMS_P1;PMS_P2;Temp;Humidity;BMP_temperature;BMP_pressure;BME280_temperature;BME280_humidity;BME280_pressure;Samples;Min_cycle;Max_cycle;Signal;HPM_P1;HPM_P2
2022/06/26 00:02:46;;;;;;;;;;;;;;;21.43;57.52;100116.19;5356341;32;35504;-76
2022/06/26 00:05:49;;;;;;;;;;;;;;;21.53;56.97;100123.28;5374992;32;34886;-76
2022/06/26 00:08:50;;;;;;;;;;;;;;;21.66;56.18;100122.19;5356486;32;34663;-75
2022/06/26 00:11:52;;;;;;;;;;;;;;;21.29;57.35;100136.13;5376925;32;36140;-77
2022/06/26 00:14:54;;;;;;;;;;;;;;;21.28;57.17;100137.97;5339347;32;35777;-74
2022/06/26 00:17:56;;;;;;;;;;;;;;;21.30;56.96;100148.50;5366997;32;36771;-75
2022/06/26 00:20:58;;;;;;;;;;;;;;;21.33;56.74;100135.75;5360599;32;35195;-75
2022/06/26 00:24:00;;;;;;;;;;;;;;;21.87;55.01;100141.66;5359414;32;35603;-75
2022/06/26 00:27:03;;;;;;;;;;;;;;;22.47;53.12;100137.03;5377172;32;33486;-75
2022/06/26 00:30:05;;;;;;;;;;;;;;;23.12;51.21;100129.19;5356939;32;35850;-76
2022/06/26 00:33:07;;;;;;;;;;;;;;;22.91;51.80;100137.44;5375072;32;45197;-74
2022/06/26 00:36:09;;;;;;;;;;;;;;;22.43;53.22;100143.69;5361724;32;35342;-73
2022/06/26 00:39:11;;;;;;;;;;;;;;;22.13;54.33;100136.63;5368733;32;35994;-75
2022/06/26 00:42:13;;;;;;;;;;;;;;;22.35;53.69;100146.25;5366431;32;35160;-76
2022/06/26 00:45:15;;;;;;;;;;;;;;;23.42;50.47;100136.13;5359118;32;35833;-77
2022/06/26 00:48:17;;;;;;;;;;;;;;;23.50;50.16;100136.22;5375096;32;34928;-75
2022/06/26 00:51:19;;;;;;;;;;;;;;;22.40;53.48;100141.28;5358418;32;35786;-76
2022/06/26 00:54:21;;;;;;;;;;;;;;;22.21;54.69;100131.44;5373621;32;34366;-76
2022/06/26 00:57:23;;;;;;;;;;;;;;;22.05;55.61;100144.50;5358296;32;35044;-76
2022/06/26 01:00:25;;;;;;;;;;;;;;;21.80;57.70;100148.53;5369782;32;35720;-77
2022/06/26 01:03:27;;;;;;;;;;;;;;;22.50;55.46;100142.13;5360357;32;35797;-75
2022/06/26 01:06:29;;;;;;;;;;;;;;;23.75;52.26;100137.38;5357933;32;34220;-74
2022/06/26 01:09:31;;;;;;;;;;;;;;;22.90;54.68;100136.59;5374459;32;35237;-76
2022/06/26 01:12:33;;;;;;;;;;;;;;;22.62;55.70;100153.56;5357091;32;35236;-74
2022/06/26 01:15:35;;;;;;;;;;;;;;;22.49;56.45;100147.66;5349152;32;34325;-77
2022/06/26 01:18:38;;;;;;;;;;;;;;;23.61;53.17;100148.59;5352893;32;44580;-76
2022/06/26 01:21:39;;;;;;;;;;;;;;;23.32;53.70;100149.59;5369790;32;35182;-75
2022/06/26 01:24:42;;;;;;;;;;;;;;;22.91;54.94;100153.50;5365259;32;34362;-76
2022/06/26 01:27:44;;;;;;;;;;;;;;;22.35;56.57;100162.31;5357827;32;34884;-75
2022/06/26 01:30:46;;;;;;;;;;;;;;;22.22;57.11;100157.22;5374994;32;34739;-76
2022/06/26 01:33:48;;;;;;;;;;;;;;;22.44;56.23;100154.25;5357622;32;34221;-76
2022/06/26 01:36:50;;;;;;;;;;;;;;;22.33;56.75;100151.72;5371760;32;35440;-76
2022/06/26 01:39:52;;;;;;;;;;;;;;;22.33;57.16;100143.69;5358981;32;35636;-76
2022/06/26 01:42:54;;;;;;;;;;;;;;;22.30;57.49;100143.13;5367479;32;34204;-74
2022/06/26 01:45:56;;;;;;;;;;;;;;;22.46;57.13;100138.03;5369789;32;36834;-75
2022/06/26 01:48:58;;;;;;;;;;;;;;;22.51;57.13;100135.78;5360346;32;35159;-76
2022/06/26 01:52:00;;;;;;;;;;;;;;;22.64;56.83;100144.38;5377197;32;34746;-76
2022/06/26 01:55:02;;;;;;;;;;;;;;;21.66;60.58;100149.78;5361333;32;35397;-77
2022/06/26 01:58:04;;;;;;;;;;;;;;;21.85;60.29;100154.31;5376290;32;34593;-74
2022/06/26 02:01:08;;;;;;;;;;;;;;;21.81;60.27;100159.09;5362777;32;35054;-77
2022/06/26 02:04:16;;;;;;;;;;;;;;;22.32;58.79;100168.78;5367704;32;43351;-75
2022/06/26 02:07:17;;;;;;;;;;;;;;;22.45;58.09;100171.16;5368747;32;34907;-74
2022/06/26 02:13:40;;;;;;;;;;;;;;;23.17;55.95;100177.84;5374963;32;43374;-74
2022/06/26 02:16:42;;;;;;;;;;;;;;;23.60;54.17;100182.63;5335843;32;34948;-74
2022/06/26 02:19:44;;;;;;;;;;;;;;;22.97;55.77;100188.63;5372741;32;35146;-75
2022/06/26 02:22:46;;;;;;;;;;;;;;;23.49;53.64;100180.13;5367177;32;35211;-74
2022/06/26 02:25:48;;;;;;;;;;;;;;;23.18;54.05;100183.06;5361347;32;34955;-74
2022/06/26 02:28:50;;;;;;;;;;;;;;;23.38;53.02;100188.34;5374835;32;36397;-74
2022/06/26 02:31:53;;;;;;;;;;;;;;;22.72;54.74;100194.53;5360940;32;35467;-76
2022/06/26 02:34:54;;;;;;;;;;;;;;;23.15;53.31;100195.91;5376706;32;34831;-77
2022/06/26 02:37:56;;;;;;;;;;;;;;;22.80;54.33;100194.69;5359455;32;35036;-76
2022/06/26 02:40:58;;;;;;;;;;;;;;;21.70;57.74;100203.81;5373517;32;33843;-76
2022/06/26 02:44:00;;;;;;;;;;;;;;;22.55;55.40;100214.88;5360829;32;35086;-75
2022/06/26 02:47:02;;;;;;;;;;;;;;;22.46;55.96;100218.38;5361487;32;34962;-75
2022/06/26 02:50:05;;;;;;;;;;;;;;;21.30;60.30;100218.00;5377974;32;35167;-76
2022/06/26 02:53:07;;;;;;;;;;;;;;;20.73;62.96;100229.97;5360375;32;43712;-76
2022/06/26 02:56:09;;;;;;;;;;;;;;;20.74;63.54;100231.69;5379681;32;35414;-74
2022/06/26 02:59:11;;;;;;;;;;;;;;;20.67;64.02;100225.16;5360524;32;34379;-75
2022/06/26 03:02:13;;;;;;;;;;;;;;;21.58;60.77;100235.19;5371827;32;34833;-75
2022/06/26 03:05:15;;;;;;;;;;;;;;;22.12;58.04;100234.81;5363054;32;35901;-74
2022/06/26 03:08:17;;;;;;;;;;;;;;;21.20;61.66;100243.81;5358885;32;34806;-76
2022/06/26 03:11:19;;;;;;;;;;;;;;;21.04;62.68;100249.59;5376483;32;35106;-76
2022/06/26 03:14:21;;;;;;;;;;;;;;;21.92;59.53;100240.25;5345119;32;34857;-76
2022/06/26 03:17:24;;;;;;;;;;;;;;;21.28;61.30;100239.53;5364461;32;34821;-75
2022/06/26 03:20:26;;;;;;;;;;;;;;;20.83;63.45;100257.63;5353533;32;34841;-76
2022/06/26 03:26:49;;;;;;;;;;;;;;;21.94;59.52;100248.97;5373609;32;35771;-77
2022/06/26 03:29:51;;;;;;;;;;;;;;;22.28;58.04;100250.34;5357116;32;35109;-76
2022/06/26 03:32:53;;;;;;;;;;;;;;;22.40;57.40;100256.41;5372735;32;34409;-76
2022/06/26 03:35:55;;;;;;;;;;;;;;;21.55;60.57;100249.66;5359670;32;35361;-75
2022/06/26 03:38:57;;;;;;;;;;;;;;;21.70;59.76;100241.28;5371912;32;34842;-75
2022/06/26 03:42:01;;;;;;;;;;;;;;;21.36;61.52;100260.25;5360284;32;34950;-77
2022/06/26 03:45:03;;;;;;;;;;;;;;;21.16;62.20;100259.25;5364411;32;34285;-77
2022/06/26 03:48:05;;;;;;;;;;;;;;;21.16;62.16;100263.75;5370855;32;34845;-75
2022/06/26 03:51:07;;;;;;;;;;;;;;;21.38;61.51;100258.28;5358399;32;43500;-77
2022/06/26 03:54:09;;;;;;;;;;;;;;;22.02;59.09;100249.97;5377138;32;35552;-75
2022/06/26 03:57:12;;;;;;;;;;;;;;;22.49;57.74;100244.88;5358656;32;35501;-75
2022/06/26 04:00:14;;;;;;;;;;;;;;;22.70;56.64;100252.78;5374793;32;34792;-76
2022/06/26 04:03:16;;;;;;;;;;;;;;;21.86;59.26;100237.13;5356253;32;34980;-76
2022/06/26 04:06:18;;;;;;;;;;;;;;;21.99;59.66;100254.75;5359596;32;35368;-76
2022/06/26 04:09:19;;;;;;;;;;;;;;;22.01;59.75;100256.31;5372805;32;33697;-76
2022/06/26 04:12:22;;;;;;;;;;;;;;;22.03;59.24;100257.03;5357471;32;35891;-76
2022/06/26 04:15:24;;;;;;;;;;;;;;;22.54;57.87;100252.47;5351968;32;35377;-75
2022/06/26 04:18:25;;;;;;;;;;;;;;;23.05;55.69;100246.84;5355885;32;35310;-75
2022/06/26 04:21:27;;;;;;;;;;;;;;;22.04;59.09;100261.41;5372004;32;35662;-74
2022/06/26 04:24:29;;;;;;;;;;;;;;;21.95;60.28;100256.84;5361740;32;35014;-76
2022/06/26 04:27:31;;;;;;;;;;;;;;;22.05;59.99;100263.09;5361281;32;35414;-76
2022/06/26 04:30:34;;;;;;;;;;;;;;;22.75;57.44;100271.13;5373871;32;36470;-76
2022/06/26 04:33:36;;;;;;;;;;;;;;;22.86;56.87;100274.53;5357171;32;35729;-75
2022/06/26 04:36:37;;;;;;;;;;;;;;;23.69;54.06;100259.56;5376924;32;46009;-75
2022/06/26 04:39:39;;;;;;;;;;;;;;;25.09;50.06;100268.16;5359548;32;34961;-76
2022/06/26 04:42:41;;;;;;;;;;;;;;;23.86;53.65;100274.03;5372807;32;34936;-77
2022/06/26 04:45:43;;;;;;;;;;;;;;;23.72;54.30;100274.53;5362863;32;34808;-75
2022/06/26 04:48:45;;;;;;;;;;;;;;;24.34;52.78;100275.63;5356735;32;35052;-76
2022/06/26 04:51:47;;;;;;;;;;;;;;;24.84;51.73;100281.34;5372407;32;35674;-77
2022/06/26 04:54:50;;;;;;;;;;;;;;;26.06;47.90;100265.19;5356488;32;33035;-74
2022/06/26 04:57:52;;;;;;;;;;;;;;;24.88;50.65;100281.91;5372753;32;35100;-75
2022/06/26 05:00:54;;;;;;;;;;;;;;;25.68;48.43;100271.91;5359328;32;34271;-77
2022/06/26 05:03:56;;;;;;;;;;;;;;;25.00;50.38;100271.75;5370698;32;36736;-75
2022/06/26 05:06:58;;;;;;;;;;;;;;;26.26;47.10;100268.47;5357213;32;34052;-75
2022/06/26 05:10:00;;;;;;;;;;;;;;;26.31;46.35;100271.50;5355042;32;35770;-76
2022/06/26 05:13:02;;;;;;;;;;;;;;;24.94;50.04;100281.28;5370628;32;34577;-75
2022/06/26 05:16:04;;;;;;;;;;;;;;;25.47;47.75;100276.81;5335020;32;35290;-79
2022/06/26 05:19:06;;;;;;;;;;;;;;;25.82;47.55;100274.00;5373643;32;35413;-76
2022/06/26 05:22:08;;;;;;;;;;;;;;;25.86;47.40;100272.69;5356942;32;44540;-75
2022/06/26 05:25:10;;;;;;;;;;;;;;;27.07;43.70;100270.50;5375598;32;35520;-76
2022/06/26 05:28:13;;;;;;;;;;;;;;;27.08;43.83;100255.16;5360860;32;35365;-77
2022/06/26 05:31:15;;;;;;;;;;;;;;;26.38;46.12;100275.22;5362005;32;34910;-76
2022/06/26 05:34:17;;;;;;;;;;;;;;;27.42;44.26;100276.50;5377848;32;35023;-78
2022/06/26 05:37:19;;;;;;;;;;;;;;;28.77;41.07;100275.44;5359326;32;35896;-77
2022/06/26 05:40:21;;;;;;;;;;;;;;;27.29;44.34;100271.63;5378668;32;34816;-75
2022/06/26 05:43:23;;;;;;;;;;;;;;;26.18;47.30;100282.75;5359650;32;36235;-77
2022/06/26 05:46:25;;;;;;;;;;;;;;;27.11;44.36;100258.31;5374965;32;35573;-78
2022/06/26 05:49:28;;;;;;;;;;;;;;;29.05;40.71;100281.19;5361531;32;35513;-76
2022/06/26 05:52:30;;;;;;;;;;;;;;;29.60;39.33;100267.28;5358534;32;34795;-77
2022/06/26 05:55:33;;;;;;;;;;;;;;;28.87;40.83;100274.19;5379048;32;35345;-78
2022/06/26 05:58:35;;;;;;;;;;;;;;;28.86;40.88;100279.78;5359710;32;34603;-75
2022/06/26 06:01:37;;;;;;;;;;;;;;;29.80;38.91;100270.25;5376651;32;47438;-77
2022/06/26 06:04:39;;;;;;;;;;;;;;;29.08;40.58;100281.63;5364496;32;36937;-76
2022/06/26 06:07:41;;;;;;;;;;;;;;;29.59;39.27;100281.84;5369108;32;34625;-76
2022/06/26 06:10:43;;;;;;;;;;;;;;;29.98;38.66;100285.31;5363627;32;35281;-75
2022/06/26 06:13:45;;;;;;;;;;;;;;;29.22;39.98;100287.25;5356284;32;33715;-76
2022/06/26 06:16:47;;;;;;;;;;;;;;;29.81;38.90;100288.19;5355049;32;34667;-75
2022/06/26 06:19:49;;;;;;;;;;;;;;;28.75;41.44;100294.56;5359576;32;36474;-75
2022/06/26 06:22:53;;;;;;;;;;;;;;;29.20;40.58;100305.56;5372381;32;37386;-77
2022/06/26 06:25:55;;;;;;;;;;;;;;;29.07;40.73;100303.47;5361002;32;34693;-77
2022/06/26 06:28:57;;;;;;;;;;;;;;;30.38;37.97;100300.22;5370384;32;34471;-76
2022/06/26 06:31:59;;;;;;;;;;;;;;;29.71;39.21;100295.78;5363919;32;34879;-78
2022/06/26 06:35:01;;;;;;;;;;;;;;;30.61;37.26;100292.75;5360162;32;37429;-75
2022/06/26 06:38:08;;;;;;;;;;;;;;;31.48;35.64;100286.28;5375260;32;43236;-76
2022/06/26 06:41:10;;;;;;;;;;;;;;;30.64;37.19;100300.50;5358858;32;35194;-76
2022/06/26 06:44:12;;;;;;;;;;;;;;;32.66;33.50;100290.66;5375313;32;35370;-77
2022/06/26 06:47:14;;;;;;;;;;;;;;;30.60;37.18;100304.66;5357667;32;34812;-78
2022/06/26 06:50:16;;;;;;;;;;;;;;;31.92;35.02;100299.53;5353023;32;35250;-77
2022/06/26 06:53:24;;;;;;;;;;;;;;;32.67;33.38;100296.91;5370880;32;35366;-75
2022/06/26 06:56:26;;;;;;;;;;;;;;;32.12;34.63;100302.34;5361764;32;34599;-77
2022/06/26 06:59:28;;;;;;;;;;;;;;;32.02;33.80;100296.47;5376382;32;36701;-75
2022/06/26 07:02:31;;;;;;;;;;;;;;;33.19;32.27;100295.31;5356940;32;34863;-75
2022/06/26 07:05:33;;;;;;;;;;;;;;;34.43;30.30;100287.94;5375272;32;34651;-76
2022/06/26 07:08:35;;;;;;;;;;;;;;;32.80;33.08;100286.91;5360478;32;35111;-75
2022/06/26 07:11:37;;;;;;;;;;;;;;;34.34;30.09;100300.12;5365203;32;44724;-76
2022/06/26 07:14:39;;;;;;;;;;;;;;;33.19;32.13;100295.31;5351768;32;36036;-77
2022/06/26 07:17:40;;;;;;;;;;;;;;;32.47;32.76;100286.00;5348788;32;35514;-78
2022/06/26 07:20:43;;;;;;;;;;;;;;;33.17;31.96;100298.28;5370995;32;35428;-75
2022/06/26 07:23:45;;;;;;;;;;;;;;;31.71;34.47;100294.16;5357708;32;35203;-76
2022/06/26 07:26:47;;;;;;;;;;;;;;;32.99;32.31;100285.28;5348492;32;863901;-77
2022/06/26 07:29:49;;;;;;;;;;;;;;;32.39;32.74;100292.44;5360275;32;35302;-77
2022/06/26 07:32:50;;;;;;;;;;;;;;;34.75;29.10;100285.22;5363651;32;34978;-79
2022/06/26 07:35:52;;;;;;;;;;;;;;;33.59;30.65;100277.06;5371932;32;35103;-75
2022/06/26 07:38:59;;;;;;;;;;;;;;;31.96;33.33;100289.94;5358660;32;34956;-77
2022/06/26 07:42:01;;;;;;;;;;;;;;;33.29;30.99;100288.37;5371488;32;34825;-75
2022/06/26 07:45:03;;;;;;;;;;;;;;;33.93;29.57;100293.16;5362260;32;35347;-74
2022/06/26 07:48:05;;;;;;;;;;;;;;;34.07;29.21;100287.66;5372913;32;34226;-80
2022/06/26 07:51:07;;;;;;;;;;;;;;;34.21;29.27;100292.00;5358534;32;43398;-76
2022/06/26 07:54:09;;;;;;;;;;;;;;;35.13;27.75;100287.91;5362135;32;34797;-77
2022/06/26 07:57:11;;;;;;;;;;;;;;;34.00;29.07;100300.47;5372797;32;35810;-77
2022/06/26 08:00:14;;;;;;;;;;;;;;;34.27;28.87;100293.88;5359243;32;35671;-76
2022/06/26 08:03:16;;;;;;;;;;;;;;;34.51;28.45;100288.72;5373097;32;35287;-74
2022/06/26 08:06:19;;;;;;;;;;;;;;;34.24;28.98;100294.28;5358155;32;34731;-77
2022/06/26 08:09:21;;;;;;;;;;;;;;;34.78;28.05;100297.59;5375326;32;34955;-79
2022/06/26 08:12:23;;;;;;;;;;;;;;;34.33;28.31;100295.75;5359508;32;36662;-74
2022/06/26 08:15:25;;;;;;;;;;;;;;;33.77;29.42;100299.06;5339026;32;32966;-77
2022/06/26 08:18:27;;;;;;;;;;;;;;;36.75;25.04;100274.69;5370595;32;35625;-74
2022/06/26 08:24:49;;;;;;;;;;;;;;;37.44;23.83;100282.47;5370874;32;34648;-77
2022/06/26 08:27:51;;;;;;;;;;;;;;;35.87;25.92;100290.75;5359671;32;35093;-78
2022/06/26 08:30:53;;;;;;;;;;;;;;;37.13;24.33;100279.78;5371088;32;34849;-75
2022/06/26 08:33:55;;;;;;;;;;;;;;;36.44;25.24;100289.47;5365277;32;35402;-77
2022/06/26 08:36:57;;;;;;;;;;;;;;;35.83;26.05;100297.78;5359967;32;34599;-79
2022/06/26 08:39:59;;;;;;;;;;;;;;;35.11;27.17;100286.47;5373188;32;34753;-79
2022/06/26 08:43:01;;;;;;;;;;;;;;;34.57;27.80;100287.84;5344190;32;35008;-75
2022/06/26 08:46:03;;;;;;;;;;;;;;;34.08;28.53;100297.53;5374313;32;34132;-74
2022/06/26 08:49:15;;;;;;;;;;;;;;;34.80;27.52;100292.75;5357566;32;34702;-79
2022/06/26 08:52:20;;;;;;;;;;;;;;;38.34;22.66;100282.78;5366618;32;35937;-79
2022/06/26 08:55:23;;;;;;;;;;;;;;;34.79;27.37;100291.94;5371527;32;34480;-75
2022/06/26 08:58:25;;;;;;;;;;;;;;;35.49;26.33;100280.91;5358746;32;35382;-75
2022/06/26 09:01:27;;;;;;;;;;;;;;;34.91;26.92;100279.25;5375017;32;34757;-74
2022/06/26 09:04:29;;;;;;;;;;;;;;;35.64;25.94;100272.31;5359677;32;34889;-74
2022/06/26 09:07:31;;;;;;;;;;;;;;;35.84;25.60;100280.28;5374123;32;35630;-79
2022/06/26 09:10:37;;;;;;;;;;;;;;;35.40;26.02;100283.03;5360993;32;34921;-76
2022/06/26 09:13:40;;;;;;;;;;;;;;;36.01;24.22;100279.50;5362024;32;45286;-78
2022/06/26 09:16:44;;;;;;;;;;;;;;;36.50;23.90;100282.22;5349731;32;34918;-77
2022/06/26 09:19:46;;;;;;;;;;;;;;;36.59;23.13;100280.84;5361788;32;34647;-76
2022/06/26 09:22:52;;;;;;;;;;;;;;;36.82;23.18;100275.41;5369861;32;32829;-80
2022/06/26 09:25:54;;;;;;;;;;;;;;;37.46;22.86;100281.13;5359208;32;34185;-79
2022/06/26 09:28:56;;;;;;;;;;;;;;;37.24;22.37;100275.41;5374897;32;35013;-77
2022/06/26 09:32:08;;;;;;;;;;;;;;;37.27;20.85;100274.09;5361177;32;34723;-74
2022/06/26 09:35:10;;;;;;;;;;;;;;;38.42;19.34;100270.59;5362515;32;45055;-75
2022/06/26 09:38:22;;;;;;;;;;;;;;;38.03;19.40;100259.38;5376910;32;34891;-80
2022/06/26 09:41:31;;;;;;;;;;;;;;;38.73;17.20;100256.38;5358441;32;34946;-75
2022/06/26 09:44:41;;;;;;;;;;;;;;;40.99;15.42;100252.72;5377715;32;34412;-75
2022/06/26 09:47:43;;;;;;;;;;;;;;;42.03;15.25;100257.47;5359174;32;45843;-80
2022/06/26 09:50:45;;;;;;;;;;;;;;;38.30;19.08;100264.31;5350481;32;35571;-77
2022/06/26 09:53:47;;;;;;;;;;;;;;;38.36;19.22;100268.81;5373276;32;34428;-79
2022/06/26 09:56:49;;;;;;;;;;;;;;;38.46;19.44;100264.37;5358870;32;34477;-75
2022/06/26 09:59:51;;;;;;;;;;;;;;;37.34;20.99;100267.44;5375919;32;34815;-78
2022/06/26 10:06:26;;;;;;;;;;;;;;;37.58;20.46;100264.69;5372614;32;44743;-76
2022/06/26 10:09:28;;;;;;;;;;;;;;;37.03;20.84;100254.03;5371244;32;34665;-78
2022/06/26 10:12:30;;;;;;;;;;;;;;;38.89;19.11;100256.59;5354671;32;35136;-75
2022/06/26 10:15:42;;;;;;;;;;;;;;;40.99;15.95;100260.97;5350768;32;34805;-77
2022/06/26 10:18:44;;;;;;;;;;;;;;;38.96;17.90;100246.28;5359692;32;45302;-79
2022/06/26 10:21:46;;;;;;;;;;;;;;;39.96;17.14;100255.47;5374699;32;34714;-79
2022/06/26 10:24:58;;;;;;;;;;;;;;;39.30;17.64;100257.31;5364061;32;34443;-78
2022/06/26 10:28:00;;;;;;;;;;;;;;;41.38;15.53;100242.25;5358302;32;33847;-75
2022/06/26 10:31:08;;;;;;;;;;;;;;;41.91;15.46;100248.59;5376584;32;35953;-75
2022/06/26 10:34:20;;;;;;;;;;;;;;;39.65;17.48;100254.25;5359237;32;46722;-78
2022/06/26 10:37:22;;;;;;;;;;;;;;;38.56;18.48;100247.22;5373627;32;35147;-77
2022/06/26 10:43:49;;;;;;;;;;;;;;;40.04;16.91;100247.59;5365979;32;42737;-74
2022/06/26 10:46:56;;;;;;;;;;;;;;;38.88;17.92;100246.72;5373504;32;35191;-74
2022/06/26 10:49:58;;;;;;;;;;;;;;;38.76;17.88;100241.28;5361767;32;34986;-78
2022/06/26 10:53:14;;;;;;;;;;;;;;;39.32;17.00;100241.38;5376016;32;35021;-74
2022/06/26 10:56:16;;;;;;;;;;;;;;;40.88;15.74;100238.81;5357594;32;43492;-77
2022/06/26 10:59:18;;;;;;;;;;;;;;;43.01;13.74;100234.47;5372801;32;35324;-75
2022/06/26 11:02:20;;;;;;;;;;;;;;;42.83;13.86;100227.56;5346067;32;35319;-76
2022/06/26 11:05:22;;;;;;;;;;;;;;;40.64;16.14;100222.91;5360616;32;34767;-75
2022/06/26 11:08:25;;;;;;;;;;;;;;;39.84;16.48;100241.84;5375251;32;35312;-79
2022/06/26 11:11:30;;;;;;;;;;;;;;;41.03;15.29;100226.28;5357770;32;34258;-75
2022/06/26 11:14:32;;;;;;;;;;;;;;;40.56;15.48;100232.47;5360399;32;35343;-74
2022/06/26 11:17:34;;;;;;;;;;;;;;;38.52;17.25;100248.81;5337851;32;35047;-76
2022/06/26 11:20:53;;;;;;;;;;;;;;;38.54;17.28;100232.94;5368055;32;44729;-80
2022/06/26 11:23:55;;;;;;;;;;;;;;;38.85;17.10;100236.22;5376505;32;35261;-77
2022/06/26 11:26:57;;;;;;;;;;;;;;;39.26;16.48;100235.78;5357314;32;35628;-79
2022/06/26 11:29:59;;;;;;;;;;;;;;;41.75;14.40;100233.94;5376276;32;35356;-77
2022/06/26 11:33:01;;;;;;;;;;;;;;;42.60;13.47;100222.56;5361164;32;34909;-78
2022/06/26 11:36:07;;;;;;;;;;;;;;;40.15;15.57;100236.72;5374816;32;35058;-77
2022/06/26 11:39:09;;;;;;;;;;;;;;;40.96;14.78;100232.00;5360253;32;46318;-77
2022/06/26 11:42:14;;;;;;;;;;;;;;;38.79;17.10;100239.97;5358328;32;34712;-75
2022/06/26 11:45:20;;;;;;;;;;;;;;;37.32;18.09;100236.66;5376880;32;35409;-78
2022/06/26 11:48:22;;;;;;;;;;;;;;;36.73;19.22;100224.81;5359586;32;34853;-74
2022/06/26 11:51:24;;;;;;;;;;;;;;;36.23;19.89;100227.84;5373615;32;35030;-74
2022/06/26 11:54:26;;;;;;;;;;;;;;;37.08;18.58;100235.00;5361506;32;36542;-78
2022/06/26 11:57:28;;;;;;;;;;;;;;;36.67;19.54;100214.81;5370953;32;34745;-74
2022/06/26 12:00:30;;;;;;;;;;;;;;;38.33;17.35;100209.78;5361292;32;35705;-75
2022/06/26 12:03:32;;;;;;;;;;;;;;;37.66;17.82;100220.44;5358271;32;34670;-78
2022/06/26 12:06:36;;;;;;;;;;;;;;;35.10;20.95;100213.75;5375172;32;34747;-77
2022/06/26 12:09:40;;;;;;;;;;;;;;;35.57;20.47;100215.00;5359127;32;44327;-75
2022/06/26 12:12:49;;;;;;;;;;;;;;;34.82;21.40;100214.19;5373182;32;34387;-77
2022/06/26 12:15:51;;;;;;;;;;;;;;;36.44;20.00;100201.88;5335368;32;34466;-74
2022/06/26 12:18:54;;;;;;;;;;;;;;;36.12;20.38;100200.44;5374580;32;35296;-78
2022/06/26 12:21:56;;;;;;;;;;;;;;;36.46;20.15;100196.22;5365965;32;35679;-76
2022/06/26 12:24:59;;;;;;;;;;;;;;;35.26;21.30;100196.81;5361415;32;35667;-78
2022/06/26 12:28:01;;;;;;;;;;;;;;;36.22;20.25;100200.72;5360716;32;34166;-78
2022/06/26 12:31:03;;;;;;;;;;;;;;;36.13;20.39;100202.09;5357104;32;34681;-77
2022/06/26 12:34:06;;;;;;;;;;;;;;;35.52;20.98;100210.19;5377427;32;34259;-77
2022/06/26 12:37:07;;;;;;;;;;;;;;;35.49;20.86;100207.94;5357795;32;44791;-77
2022/06/26 12:40:09;;;;;;;;;;;;;;;35.08;21.36;100199.50;5365698;32;34972;-75
2022/06/26 12:43:11;;;;;;;;;;;;;;;35.02;21.42;100206.69;5370883;32;35787;-75
2022/06/26 12:46:13;;;;;;;;;;;;;;;34.70;21.58;100201.25;5358176;32;35414;-77
2022/06/26 12:49:15;;;;;;;;;;;;;;;34.43;22.00;100200.63;5375264;32;34832;-80
2022/06/26 12:52:18;;;;;;;;;;;;;;;32.84;24.09;100209.22;5358844;32;34064;-76
2022/06/26 12:55:20;;;;;;;;;;;;;;;33.63;23.10;100204.75;5374948;32;34375;-79
2022/06/26 12:58:22;;;;;;;;;;;;;;;33.23;23.60;100206.69;5361725;32;34513;-78
2022/06/26 13:01:24;;;;;;;;;;;;;;;33.34;23.65;100211.50;5366270;32;34483;-79
2022/06/26 13:04:34;;;;;;;;;;;;;;;33.74;23.03;100214.13;5376709;32;35148;-79
2022/06/26 13:07:36;;;;;;;;;;;;;;;33.79;22.99;100211.62;5358194;32;36523;-78
2022/06/26 13:10:39;;;;;;;;;;;;;;;33.27;23.57;100210.69;5373770;32;44536;-75
2022/06/26 13:13:41;;;;;;;;;;;;;;;33.05;23.87;100215.53;5356956;32;33997;-76
2022/06/26 13:17:03;;;;;;;;;;;;;;;33.46;24.44;100209.00;5353921;32;36653;-78
2022/06/26 13:20:06;;;;;;;;;;;;;;;32.88;25.30;100202.34;5364068;32;35373;-78
2022/06/26 13:23:08;;;;;;;;;;;;;;;32.99;25.16;100219.94;5358874;32;44704;-79
2022/06/26 13:26:10;;;;;;;;;;;;;;;32.42;25.70;100215.06;5374508;32;34718;-78
2022/06/26 13:29:12;;;;;;;;;;;;;;;32.38;25.65;100213.78;5358727;32;35246;-80
2022/06/26 13:32:14;;;;;;;;;;;;;;;32.64;25.29;100216.53;5373127;32;34483;-77
2022/06/26 13:35:17;;;;;;;;;;;;;;;32.89;24.51;100219.50;5361036;32;34267;-79
2022/06/26 13:38:19;;;;;;;;;;;;;;;33.85;23.25;100224.38;5371073;32;35087;-75
2022/06/26 13:41:21;;;;;;;;;;;;;;;34.24;22.68;100223.37;5366708;32;35917;-78
2022/06/26 13:44:23;;;;;;;;;;;;;;;33.68;23.70;100224.00;5363881;32;33498;-79
2022/06/26 13:47:25;;;;;;;;;;;;;;;32.71;25.07;100221.97;5377867;32;35017;-79
2022/06/26 13:50:28;;;;;;;;;;;;;;;32.50;25.47;100220.28;5359021;32;34956;-79
2022/06/26 13:53:30;;;;;;;;;;;;;;;33.49;23.95;100219.47;5365403;32;34996;-75
2022/06/26 13:56:32;;;;;;;;;;;;;;;33.38;24.02;100223.66;5360555;32;35171;-78
2022/06/26 13:59:36;;;;;;;;;;;;;;;33.26;23.99;100226.19;5372322;32;34440;-80
2022/06/26 14:02:39;;;;;;;;;;;;;;;32.97;24.83;100218.44;5366273;32;44735;-77
2022/06/26 14:05:41;;;;;;;;;;;;;;;32.57;24.86;100227.41;5360129;32;34916;-76
2022/06/26 14:08:43;;;;;;;;;;;;;;;32.42;25.25;100217.78;5378106;32;35542;-80
2022/06/26 14:11:45;;;;;;;;;;;;;;;33.02;24.68;100230.37;5361474;32;34344;-76
2022/06/26 14:14:48;;;;;;;;;;;;;;;32.84;25.04;100224.69;5359050;32;35477;-74
2022/06/26 14:17:50;;;;;;;;;;;;;;;33.91;23.42;100220.81;5354661;32;35368;-77
2022/06/26 14:20:52;;;;;;;;;;;;;;;32.80;24.87;100218.03;5363832;32;34704;-74
2022/06/26 14:27:15;;;;;;;;;;;;;;;33.56;23.44;100220.31;5361657;32;45083;-76
2022/06/26 14:30:19;;;;;;;;;;;;;;;34.25;22.80;100214.13;5378409;32;34883;-78
2022/06/26 14:33:22;;;;;;;;;;;;;;;32.84;24.85;100216.53;5363992;32;36011;-75
2022/06/26 14:36:31;;;;;;;;;;;;;;;34.50;22.20;100211.50;5374655;32;35547;-77
2022/06/26 14:39:34;;;;;;;;;;;;;;;34.65;22.02;100209.31;5365981;32;35299;-79
2022/06/26 14:42:38;;;;;;;;;;;;;;;34.62;21.84;100207.00;5360572;32;37802;-79
2022/06/26 14:45:41;;;;;;;;;;;;;;;34.38;22.09;100214.06;5377672;32;35080;-74
2022/06/26 14:48:44;;;;;;;;;;;;;;;34.13;22.22;100207.69;5359514;32;34206;-74
2022/06/26 14:51:47;;;;;;;;;;;;;;;33.33;23.65;100213.41;5376602;32;36396;-78
2022/06/26 14:54:49;;;;;;;;;;;;;;;33.35;23.41;100211.28;5362411;32;34207;-75
2022/06/26 14:57:51;;;;;;;;;;;;;;;34.61;21.73;100190.84;5371331;32;35344;-76
2022/06/26 15:00:53;;;;;;;;;;;;;;;33.95;22.71;100203.00;5364918;32;34652;-77
2022/06/26 15:03:56;;;;;;;;;;;;;;;33.94;22.74;100204.88;5362845;32;35314;-75
2022/06/26 15:06:58;;;;;;;;;;;;;;;34.77;21.47;100198.47;5373031;32;35022;-75
2022/06/26 15:10:00;;;;;;;;;;;;;;;34.72;21.60;100192.87;5352758;32;32633;-77
2022/06/26 15:13:02;;;;;;;;;;;;;;;34.86;21.35;100191.69;5374984;32;35596;-76
2022/06/26 15:16:04;;;;;;;;;;;;;;;33.97;22.31;100198.16;5335943;32;35014;-78
2022/06/26 15:19:06;;;;;;;;;;;;;;;34.20;21.91;100192.16;5368182;32;35509;-76
2022/06/26 15:22:08;;;;;;;;;;;;;;;34.24;22.04;100196.09;5363631;32;46000;-75
2022/06/26 15:25:10;;;;;;;;;;;;;;;34.00;22.52;100199.59;5362586;32;34368;-76
2022/06/26 15:28:13;;;;;;;;;;;;;;;33.65;23.10;100202.66;5376387;32;36265;-75
2022/06/26 15:31:18;;;;;;;;;;;;;;;35.07;21.50;100200.56;5360883;32;34643;-77
2022/06/26 15:34:20;;;;;;;;;;;;;;;34.94;21.36;100207.81;5375724;32;34720;-76
2022/06/26 15:37:22;;;;;;;;;;;;;;;33.59;23.11;100208.97;5359622;32;36132;-75
2022/06/26 15:40:24;;;;;;;;;;;;;;;33.81;22.81;100207.59;5366996;32;35568;-74
2022/06/26 15:43:26;;;;;;;;;;;;;;;33.57;23.47;100205.63;5371888;32;36378;-77
2022/06/26 15:46:28;;;;;;;;;;;;;;;33.54;23.37;100200.59;5360751;32;35466;-76
2022/06/26 15:49:31;;;;;;;;;;;;;;;34.01;22.90;100193.94;5373784;32;33751;-79
2022/06/26 15:52:33;;;;;;;;;;;;;;;34.39;22.27;100191.19;5358619;32;34504;-79
2022/06/26 15:55:35;;;;;;;;;;;;;;;34.90;21.63;100184.72;5374602;32;35041;-79
2022/06/26 15:58:37;;;;;;;;;;;;;;;34.62;21.99;100190.63;5360121;32;45854;-77